Martinsville, VA (24112)

12:34 PM EDT on July 25, 2016 (GMT -0400)
Patrick Henry Mall Area | | Change Station

Elev 1020 ft 36.69 °N, 79.86 °W | Updated 11 minutes ago

Clear
Clear
90.1 °F
Feels Like 100 °F
N
1.0
Wind Variable Wind from WNW
Gusts 5.0 mph

Today
High -- | Low -- °F
--% Chance of Precip.
Yesterday
High -- | Low -- °F
Precip. -- in
Pressure 30.07 in
Visibility 10.0 miles
Clouds Clear
Heat Index 100 °F
Dew Point 75 °F
Humidity 61%
Rainfall 0.00 in
Snow Depth Not available.
6:20 AM 8:31 PM
Waning Gibbous, 64% visible
METAR KMTV 251615Z AUTO 19004KT 10SM CLR 33/22 A3007 RMK AO2 T03280222
Pressure 30.07 in
Visibility 10.0 miles
Clouds Clear
Heat Index 100 °F
Dew Point 75 °F
Humidity 61%
Rainfall 0.00 in
Snow Depth Not available.
6:20 AM 8:31 PM
Waning Gibbous, 64% visible
METAR KMTV 251615Z AUTO 19004KT 10SM CLR 33/22 A3007 RMK AO2 T03280222
Record highs are possible for parts of the Northeast Monday and Tuesday, as parts of the central U.S. take a little breather from the worst of summer's dog day heat.

Expansive high pressure in the upper atmosphere will focus on parts of the East and West this week, sending heat indices well into the triple digits from the Mid-Atlantic states into the South.

10-Day Weather Forecast

Almanac

Astronomy

Jul. 25, 2016 Rise Set
Actual Time
Civil Twilight
Nautical Twilight
Astronomical Twilight
Moon
Length of Visible Light
Length of Day
Tomorrow will be .
, % of the Moon is Illuminated

Today's Extremes

State Highs State Lows

Community

WunderPhotos

Upload Photos

1,927,345 photos uploaded!

WunderBlog® & News

Nearby

Air Quality

  Air Quality AQ Index Pollutant
Not available.

Snow Depth

Station Depth Elevation

Earthquake Activity

City Distance Mag. Time & Date
Minimum magnitude displayed is 2.5.

Coastal Water Temperatures

Place Temperature

Stations

Nearby Weather Stations

Station Location Temp. Windchill Dew Point Humidity Wind Precip. Elev Updated Type
                   

Watches & Warnings

There are currently no watches in effect.